Time;durP1;ratioP1;P1;durP2;ratioP2;P2;SDS_P1;SDS_P2;PMS_P1;PMS_P2;Temp;Humidity;BMP_temperature;BMP_pressure;BME280_temperature;BME280_humidity;BME280_pressure;Samples;Min_cycle;Max_cycle;Signal;HPM_P1;HPM_P2
2021/08/25 00:00:21;;;;;;;3.15;1.25;;;15.90;78.80;;;;;;4874622;29;20029;-61
2021/08/25 00:02:47;;;;;;;2.63;1.85;;;15.90;78.90;;;;;;4873808;29;20423;-62
2021/08/25 00:05:14;;;;;;;1.77;1.05;;;15.90;79.20;;;;;;4871838;29;20477;-74
2021/08/25 00:07:41;;;;;;;1.73;1.15;;;15.90;79.40;;;;;;4873250;29;20767;-64
2021/08/25 00:10:08;;;;;;;3.17;1.88;;;15.90;79.40;;;;;;4872404;29;20037;-65
2021/08/25 00:12:34;;;;;;;2.40;1.02;;;15.80;79.50;;;;;;4867762;29;20041;-65
2021/08/25 00:15:01;;;;;;;6.03;1.60;;;15.80;79.30;;;;;;4871037;29;20025;-65
2021/08/25 00:17:27;;;;;;;2.35;1.25;;;15.80;79.30;;;;;;4874081;29;20501;-61
2021/08/25 00:19:54;;;;;;;1.35;1.25;;;15.80;79.30;;;;;;4861338;29;20448;-63
2021/08/25 00:22:20;;;;;;;1.52;0.50;;;15.80;79.40;;;;;;4872756;29;20017;-61
2021/08/25 00:24:47;;;;;;;1.50;1.23;;;15.80;79.40;;;;;;4866188;29;20033;-73
2021/08/25 00:27:13;;;;;;;1.45;0.65;;;15.80;79.40;;;;;;4871722;29;20021;-65
2021/08/25 00:29:40;;;;;;;3.15;0.98;;;15.70;79.40;;;;;;4872240;29;20104;-68
2021/08/25 00:32:06;;;;;;;1.88;0.63;;;15.80;79.40;;;;;;4873649;29;20060;-61
2021/08/25 00:34:33;;;;;;;2.00;0.98;;;15.70;79.40;;;;;;4869007;29;20026;-65
2021/08/25 00:36:59;;;;;;;3.22;0.88;;;15.70;79.50;;;;;;4873554;29;20025;-64
2021/08/25 00:39:26;;;;;;;1.77;0.98;;;15.70;79.30;;;;;;4871177;29;20051;-61
2021/08/25 00:41:52;;;;;;;1.55;0.73;;;15.70;79.30;;;;;;4873616;29;20112;-61
2021/08/25 00:44:19;;;;;;;2.58;0.90;;;15.70;79.80;;;;;;4866628;29;20037;-60
2021/08/25 00:46:46;;;;;;;1.25;0.70;;;15.70;79.30;;;;;;4873470;29;20127;-69
2021/08/25 00:49:20;;;;;;;3.53;0.80;;;15.70;79.30;;;;;;4868591;29;20102;-61
2021/08/25 00:51:47;;;;;;;1.77;1.15;;;15.60;79.40;;;;;;4873599;29;20036;-66
2021/08/25 00:54:16;;;;;;;0.65;0.65;;;15.60;79.30;;;;;;4874529;29;20116;-61
2021/08/25 00:56:49;;;;;;;2.47;1.13;;;15.70;79.50;;;;;;4870930;29;20052;-60
2021/08/25 00:59:17;;;;;;;3.25;1.85;;;15.70;79.50;;;;;;4868213;29;20585;-60
2021/08/25 01:01:58;;;;;;;2.20;0.98;;;15.60;79.40;;;;;;4873180;29;20028;-62
2021/08/25 01:04:34;;;;;;;2.35;0.93;;;15.60;79.30;;;;;;4869072;29;20025;-62
2021/08/25 01:07:02;;;;;;;3.03;1.38;;;15.60;79.30;;;;;;4874131;29;20029;-68
2021/08/25 01:09:29;;;;;;;2.88;1.23;;;15.60;79.30;;;;;;4873240;29;20025;-62
2021/08/25 01:11:57;;;;;;;4.03;2.03;;;15.60;79.30;;;;;;4874448;29;20033;-61
2021/08/25 01:14:24;;;;;;;1.15;0.90;;;15.60;79.40;;;;;;4873169;29;20081;-61
2021/08/25 01:16:52;;;;;;;1.30;0.88;;;15.60;79.40;;;;;;4871449;29;21987;-60
2021/08/25 01:19:20;;;;;;;1.73;0.85;;;15.60;80.20;;;;;;4877676;29;20021;-68
2021/08/25 01:21:50;;;;;;;2.83;1.60;;;15.60;79.60;;;;;;4876898;29;20568;-68
2021/08/25 01:24:18;;;;;;;2.08;1.10;;;15.60;79.60;;;;;;4880784;29;20122;-68
2021/08/25 01:26:51;;;;;;;1.20;1.02;;;15.60;79.60;;;;;;4879182;29;20048;-61
2021/08/25 01:29:31;;;;;;;2.50;1.45;;;15.50;79.60;;;;;;4875383;29;20026;-61
2021/08/25 01:31:58;;;;;;;4.43;1.17;;;15.50;79.60;;;;;;4879309;29;20045;-62
2021/08/25 01:34:25;;;;;;;5.07;2.03;;;15.50;79.60;;;;;;4879733;29;20409;-65
2021/08/25 01:36:55;;;;;;;2.30;1.00;;;15.50;79.60;;;;;;4880524;29;20151;-60
2021/08/25 01:39:22;;;;;;;1.20;0.73;;;15.50;79.30;;;;;;4874480;29;20025;-61
2021/08/25 01:41:49;;;;;;;1.83;0.95;;;15.50;79.40;;;;;;4880259;29;20103;-62
2021/08/25 01:44:16;;;;;;;2.13;0.85;;;15.50;79.40;;;;;;4879720;29;20021;-63
2021/08/25 01:46:44;;;;;;;3.75;1.40;;;15.50;79.50;;;;;;4880067;29;20025;-66
2021/08/25 01:49:13;;;;;;;2.75;1.05;;;15.50;79.50;;;;;;4880252;29;20350;-62
2021/08/25 01:51:41;;;;;;;2.42;1.33;;;15.50;79.60;;;;;;4878068;29;20746;-62
2021/08/25 01:54:10;;;;;;;1.60;0.73;;;15.50;79.90;;;;;;4874896;29;20074;-60
2021/08/25 01:56:37;;;;;;;2.40;0.95;;;15.50;79.90;;;;;;4878800;29;20399;-66
2021/08/25 01:59:04;;;;;;;3.83;1.05;;;15.50;80.00;;;;;;4880404;29;20633;-65
2021/08/25 02:01:31;;;;;;;2.42;0.90;;;15.50;80.00;;;;;;4880098;29;20025;-60
2021/08/25 02:03:58;;;;;;;1.48;1.15;;;15.50;79.90;;;;;;4878723;29;20564;-64
2021/08/25 02:06:25;;;;;;;1.38;1.13;;;15.50;80.00;;;;;;4877178;29;20021;-67
2021/08/25 02:08:52;;;;;;;2.67;0.80;;;15.50;80.10;;;;;;4876289;29;20112;-66
2021/08/25 02:11:19;;;;;;;1.83;0.90;;;15.40;80.00;;;;;;4879310;29;20094;-66
2021/08/25 02:13:45;;;;;;;1.20;0.70;;;15.50;80.00;;;;;;4871681;29;20144;-61
2021/08/25 02:16:12;;;;;;;2.47;1.02;;;15.50;80.10;;;;;;4879955;29;20108;-66
2021/08/25 02:18:39;;;;;;;3.17;0.98;;;15.40;80.10;;;;;;4875621;29;20025;-65
2021/08/25 02:21:05;;;;;;;1.63;0.95;;;15.40;80.20;;;;;;4880463;29;20031;-62
2021/08/25 02:23:31;;;;;;;3.35;0.90;;;15.40;80.20;;;;;;4879695;29;20032;-60
2021/08/25 02:25:58;;;;;;;1.40;0.80;;;15.40;80.20;;;;;;4872173;29;20025;-61
2021/08/25 02:28:24;;;;;;;5.07;1.52;;;15.40;80.20;;;;;;4877749;29;20041;-62
2021/08/25 02:30:51;;;;;;;2.65;0.63;;;15.40;80.20;;;;;;4875572;29;20109;-67
2021/08/25 02:33:18;;;;;;;3.58;1.30;;;15.40;80.20;;;;;;4877690;29;20036;-64
2021/08/25 02:35:44;;;;;;;1.40;0.82;;;15.40;80.20;;;;;;4869855;29;20032;-60
2021/08/25 02:38:11;;;;;;;1.85;0.68;;;15.40;80.20;;;;;;4876029;29;20431;-60
2021/08/25 02:40:38;;;;;;;2.40;1.63;;;15.40;80.20;;;;;;4876591;29;20052;-63
2021/08/25 02:43:04;;;;;;;1.98;0.68;;;15.40;80.10;;;;;;4873528;29;20020;-60
2021/08/25 02:45:31;;;;;;;0.95;0.85;;;15.40;80.10;;;;;;4869898;29;20029;-61
2021/08/25 02:47:58;;;;;;;1.75;0.63;;;15.40;80.00;;;;;;4876259;29;20052;-63
2021/08/25 02:50:25;;;;;;;3.60;1.75;;;15.40;80.00;;;;;;4875691;29;20455;-60
2021/08/25 02:52:51;;;;;;;1.15;0.50;;;15.30;79.90;;;;;;4866485;29;20032;-66
2021/08/25 02:55:17;;;;;;;1.55;0.70;;;15.40;79.90;;;;;;4874518;29;20680;-67
2021/08/25 02:57:44;;;;;;;1.90;0.73;;;15.30;79.80;;;;;;4873698;29;20132;-61
2021/08/25 03:00:12;;;;;;;1.13;0.80;;;15.40;79.90;;;;;;4874912;29;20085;-63
2021/08/25 03:02:38;;;;;;;1.73;0.55;;;15.30;79.90;;;;;;4873805;29;20060;-62
2021/08/25 03:05:05;;;;;;;1.30;0.52;;;15.30;79.90;;;;;;4871199;29;20021;-61
2021/08/25 03:07:32;;;;;;;0.50;0.50;;;15.30;80.00;;;;;;4876828;29;20060;-61
2021/08/25 03:09:58;;;;;;;1.08;0.45;;;15.30;80.00;;;;;;4875201;29;20033;-60
2021/08/25 03:12:25;;;;;;;1.90;0.60;;;15.30;80.00;;;;;;4874170;29;20033;-60
2021/08/25 03:14:51;;;;;;;0.50;0.50;;;15.30;80.00;;;;;;4872146;29;20054;-60
2021/08/25 03:17:18;;;;;;;2.50;0.70;;;15.30;80.00;;;;;;4876304;29;20053;-66
2021/08/25 03:19:44;;;;;;;1.50;0.55;;;15.30;80.00;;;;;;4875755;29;20017;-60
2021/08/25 03:22:11;;;;;;;0.85;0.45;;;15.30;80.00;;;;;;4872392;29;20479;-60
2021/08/25 03:24:37;;;;;;;1.92;0.60;;;15.30;80.00;;;;;;4872426;29;20033;-67
2021/08/25 03:27:04;;;;;;;1.33;0.63;;;15.30;80.00;;;;;;4871094;29;20497;-60
2021/08/25 03:29:30;;;;;;;2.83;0.52;;;15.30;80.10;;;;;;4875822;29;20516;-60
2021/08/25 03:31:57;;;;;;;3.35;0.73;;;15.30;80.10;;;;;;4877128;29;20037;-61
2021/08/25 03:34:23;;;;;;;2.13;0.50;;;15.20;80.20;;;;;;4875855;29;20112;-66
2021/08/25 03:36:50;;;;;;;0.47;0.47;;;15.30;80.20;;;;;;4874392;29;20029;-61
2021/08/25 03:39:17;;;;;;;2.72;0.80;;;15.30;80.10;;;;;;4875800;29;20392;-60
2021/08/25 03:41:43;;;;;;;1.90;0.52;;;15.20;80.10;;;;;;4871667;29;20036;-67
2021/08/25 03:44:10;;;;;;;2.10;1.70;;;15.20;80.10;;;;;;4874116;29;20149;-64
2021/08/25 03:46:37;;;;;;;4.60;2.05;;;15.30;80.20;;;;;;4875264;29;20373;-61
2021/08/25 03:49:04;;;;;;;5.03;2.58;;;15.20;80.20;;;;;;4873083;29;20021;-62
2021/08/25 03:52:10;;;;;;;2.00;1.25;;;15.20;80.30;;;;;;4874492;29;20033;-65
2021/08/25 03:55:16;;;;;;;1.65;1.55;;;15.20;80.40;;;;;;4873086;29;20029;-66
2021/08/25 03:58:22;;;;;;;4.70;2.15;;;15.20;80.40;;;;;;4865407;29;20489;-66
2021/08/25 04:01:28;;;;;;;1.70;0.90;;;15.30;80.40;;;;;;4875123;29;20508;-67
2021/08/25 04:04:34;;;;;;;2.85;1.40;;;15.20;80.30;;;;;;4875360;29;20025;-59
2021/08/25 04:07:40;;;;;;;4.30;2.33;;;15.30;80.30;;;;;;4863372;29;20029;-60
2021/08/25 04:10:46;;;;;;;6.10;4.45;;;15.20;80.20;;;;;;4870392;29;20024;-68
2021/08/25 04:13:52;;;;;;;5.38;2.78;;;15.20;80.20;;;;;;4873781;29;20044;-65
2021/08/25 04:16:58;;;;;;;2.65;2.33;;;15.20;80.20;;;;;;4868556;29;20100;-67
2021/08/25 04:20:04;;;;;;;3.10;1.70;;;15.20;80.10;;;;;;4872396;29;20488;-69
2021/08/25 04:23:10;;;;;;;5.22;0.95;;;15.20;80.10;;;;;;4872489;29;20032;-66
2021/08/25 04:25:56;;;;;;;2.88;1.85;;;15.20;80.10;;;;;;4872279;29;20025;-73
2021/08/25 04:28:23;;;;;;;2.58;1.30;;;15.10;80.40;;;;;;4873340;29;20611;-74
2021/08/25 04:30:49;;;;;;;8.45;6.13;;;15.10;80.50;;;;;;4874100;29;20111;-64
2021/08/25 04:33:17;;;;;;;9.10;5.57;;;15.10;80.50;;;;;;4854315;29;20045;-66
2021/08/25 04:35:48;;;;;;;6.07;4.20;;;15.10;80.60;;;;;;4873898;29;20025;-67
2021/08/25 04:38:14;;;;;;;5.05;3.63;;;15.10;80.60;;;;;;4874520;29;20032;-70
2021/08/25 04:40:42;;;;;;;3.50;2.35;;;15.10;80.60;;;;;;4870948;29;20025;-64
2021/08/25 04:43:09;;;;;;;2.35;2.15;;;15.10;80.60;;;;;;4853858;29;20021;-72
2021/08/25 04:45:39;;;;;;;4.35;1.75;;;15.10;80.60;;;;;;4871982;29;20030;-74
2021/08/25 04:48:06;;;;;;;2.97;1.83;;;15.10;80.60;;;;;;4876281;29;20021;-67
2021/08/25 04:50:32;;;;;;;2.92;1.38;;;15.00;80.50;;;;;;4857563;29;20036;-67
2021/08/25 04:52:59;;;;;;;2.13;1.52;;;15.10;80.60;;;;;;4868686;29;20089;-64
2021/08/25 04:55:29;;;;;;;1.80;0.90;;;15.00;80.50;;;;;;4869605;29;20033;-65
2021/08/25 04:57:55;;;;;;;3.28;0.90;;;15.10;80.60;;;;;;4871404;29;20036;-68
2021/08/25 05:00:22;;;;;;;3.67;0.80;;;15.00;80.50;;;;;;4873516;29;20029;-67
2021/08/25 05:02:48;;;;;;;1.85;0.90;;;15.00;80.50;;;;;;4870412;29;20408;-70
2021/08/25 05:05:15;;;;;;;2.08;0.75;;;15.10;80.60;;;;;;4872354;29;20029;-65
2021/08/25 05:07:41;;;;;;;0.93;0.82;;;15.00;80.60;;;;;;4870954;29;20036;-68
2021/08/25 05:10:08;;;;;;;2.15;0.55;;;15.10;80.60;;;;;;4872710;29;20033;-67
2021/08/25 05:12:35;;;;;;;1.08;0.52;;;15.00;80.60;;;;;;4873602;29;20361;-67
2021/08/25 05:15:09;;;;;;;2.90;1.38;;;15.10;80.60;;;;;;4871696;29;20089;-65
2021/08/25 05:17:35;;;;;;;2.47;0.82;;;15.00;80.70;;;;;;4872833;29;20528;-65
2021/08/25 05:20:07;;;;;;;1.30;0.63;;;15.00;80.80;;;;;;4869571;29;20067;-65
2021/08/25 05:22:54;;;;;;;2.00;0.60;;;15.10;80.80;;;;;;4865226;29;20557;-66
2021/08/25 05:26:00;;;;;;;1.80;0.60;;;15.10;80.60;;;;;;4868831;29;20060;-70
2021/08/25 05:29:06;;;;;;;1.50;0.80;;;15.10;80.60;;;;;;4870135;29;20069;-69
2021/08/25 05:32:13;;;;;;;2.90;0.50;;;15.10;80.60;;;;;;4871546;29;20668;-67
2021/08/25 05:35:20;;;;;;;4.63;1.33;;;15.10;80.60;;;;;;4874034;29;20037;-65
2021/08/25 05:38:27;;;;;;;3.30;0.65;;;15.10;80.60;;;;;;4869349;29;20025;-66
2021/08/25 05:41:33;;;;;;;2.13;0.70;;;15.10;80.60;;;;;;4871829;29;20025;-67
2021/08/25 05:44:39;;;;;;;1.83;0.80;;;15.10;81.20;;;;;;4857813;29;20440;-71
2021/08/25 05:47:47;;;;;;;1.98;0.63;;;15.10;80.60;;;;;;4868063;29;20032;-68
2021/08/25 05:50:53;;;;;;;1.23;0.50;;;15.10;80.50;;;;;;4870880;29;20055;-66
2021/08/25 05:53:59;;;;;;;1.55;0.70;;;15.10;80.50;;;;;;4867633;29;20472;-63
2021/08/25 05:57:05;;;;;;;1.35;0.70;;;15.10;80.60;;;;;;4868461;29;20049;-62
2021/08/25 06:00:11;;;;;;;2.47;0.73;;;15.00;80.50;;;;;;4873305;29;20025;-63
2021/08/25 06:03:17;;;;;;;2.78;0.90;;;15.10;80.70;;;;;;4864673;29;20021;-63
2021/08/25 06:06:23;;;;;;;2.97;0.93;;;15.10;80.80;;;;;;4877725;29;20029;-62
2021/08/25 06:09:31;;;;;;;1.80;0.73;;;15.10;80.90;;;;;;4878636;29;20501;-64
2021/08/25 06:12:37;;;;;;;1.05;0.70;;;15.10;81.10;;;;;;4873891;29;20415;-61
2021/08/25 06:15:43;;;;;;;0.75;0.50;;;15.10;81.10;;;;;;4872994;29;20044;-65
2021/08/25 06:18:49;;;;;;;1.48;0.65;;;15.10;81.00;;;;;;4875623;29;20056;-63
2021/08/25 06:21:55;;;;;;;1.55;0.55;;;15.10;81.00;;;;;;4876675;29;20469;-64
2021/08/25 06:25:02;;;;;;;2.72;1.48;;;15.10;81.00;;;;;;4875443;29;20025;-64
2021/08/25 06:28:08;;;;;;;4.35;0.98;;;15.10;81.00;;;;;;4874330;29;20049;-70
2021/08/25 06:31:15;;;;;;;0.63;0.47;;;15.10;81.10;;;;;;4876609;29;20021;-68
2021/08/25 06:34:21;;;;;;;1.48;0.68;;;15.20;81.20;;;;;;4872790;29;20492;-71
2021/08/25 06:37:27;;;;;;;1.48;0.75;;;15.20;81.30;;;;;;4874201;29;20040;-65
2021/08/25 06:40:34;;;;;;;5.00;0.65;;;15.20;81.30;;;;;;4860579;29;20021;-68
2021/08/25 06:43:40;;;;;;;0.73;0.43;;;15.20;81.40;;;;;;4876725;29;20104;-62
2021/08/25 06:46:46;;;;;;;2.15;0.82;;;15.20;81.40;;;;;;4876017;29;20031;-65
2021/08/25 06:49:52;;;;;;;0.70;0.60;;;15.20;81.50;;;;;;4871156;29;20032;-63
2021/08/25 06:52:58;;;;;;;2.05;0.75;;;15.20;81.60;;;;;;4876896;29;20166;-64
2021/08/25 06:56:04;;;;;;;0.55;0.50;;;15.20;81.60;;;;;;4875027;29;20049;-63
2021/08/25 06:59:10;;;;;;;2.38;0.60;;;15.20;81.70;;;;;;4873368;29;20073;-64
2021/08/25 07:02:16;;;;;;;1.95;0.77;;;15.30;81.70;;;;;;4875251;29;20025;-64
2021/08/25 07:05:22;;;;;;;1.33;0.40;;;15.30;81.70;;;;;;4876846;29;20097;-63
2021/08/25 07:08:28;;;;;;;0.55;0.30;;;15.30;81.80;;;;;;4870112;29;20112;-64
2021/08/25 07:11:35;;;;;;;1.02;0.32;;;15.30;81.90;;;;;;4872337;29;20418;-63
2021/08/25 07:14:41;;;;;;;1.67;0.40;;;15.40;81.90;;;;;;4874390;29;20394;-64
2021/08/25 07:17:47;;;;;;;0.85;0.40;;;15.50;82.10;;;;;;4874972;29;20025;-63
2021/08/25 07:20:53;;;;;;;1.15;0.35;;;15.50;82.20;;;;;;4874809;29;20109;-68
2021/08/25 07:23:59;;;;;;;2.13;1.25;;;15.50;82.20;;;;;;4875082;29;20029;-65
2021/08/25 07:27:05;;;;;;;5.03;1.13;;;15.60;82.40;;;;;;4875697;29;20031;-66
2021/08/25 07:30:11;;;;;;;5.32;0.65;;;15.60;82.50;;;;;;4874794;29;20025;-63
2021/08/25 07:33:19;;;;;;;1.10;1.02;;;15.60;82.60;;;;;;4874758;29;20157;-65
2021/08/25 07:36:25;;;;;;;2.78;0.90;;;15.70;82.70;;;;;;4871203;29;20029;-67
2021/08/25 07:39:31;;;;;;;0.80;0.50;;;15.70;82.70;;;;;;4872823;29;20021;-67
2021/08/25 07:42:37;;;;;;;5.75;1.42;;;15.80;82.80;;;;;;4874319;29;20076;-67
2021/08/25 07:45:44;;;;;;;1.73;0.73;;;15.80;82.80;;;;;;4873756;29;20029;-67
2021/08/25 07:48:50;;;;;;;7.88;1.48;;;15.90;82.80;;;;;;4866294;29;20550;-66
2021/08/25 07:51:56;;;;;;;4.43;1.67;;;15.90;82.80;;;;;;4867737;29;20386;-66
2021/08/25 07:55:02;;;;;;;8.75;1.60;;;16.00;82.80;;;;;;4873357;29;20029;-68
2021/08/25 07:58:08;;;;;;;4.68;1.90;;;16.00;82.80;;;;;;4868740;29;20041;-71
2021/08/25 08:01:14;;;;;;;3.95;1.02;;;16.10;82.90;;;;;;4857422;29;20396;-70
2021/08/25 08:04:20;;;;;;;3.75;1.40;;;16.10;82.90;;;;;;4874437;29;20056;-66
2021/08/25 08:07:26;;;;;;;6.75;1.30;;;16.10;82.80;;;;;;4858130;29;20032;-68
2021/08/25 08:10:32;;;;;;;3.00;0.80;;;16.10;82.70;;;;;;4874957;29;20362;-70
2021/08/25 08:13:38;;;;;;;1.60;1.10;;;16.20;82.70;;;;;;4874010;29;20033;-68
2021/08/25 08:16:49;;;;;;;3.00;1.48;;;16.30;83.40;;;;;;4873845;29;20112;-67
2021/08/25 08:19:56;;;;;;;3.78;1.45;;;16.30;82.70;;;;;;4875301;29;20081;-66
2021/08/25 08:23:02;;;;;;;3.13;1.50;;;16.40;82.60;;;;;;4873114;29;20029;-66
2021/08/25 08:26:08;;;;;;;3.55;1.48;;;16.50;82.60;;;;;;4856462;29;20041;-69
2021/08/25 08:29:14;;;;;;;2.60;1.20;;;16.50;82.60;;;;;;4873489;29;20032;-69
2021/08/25 08:32:20;;;;;;;3.50;1.05;;;16.60;82.40;;;;;;4873600;29;20484;-67
2021/08/25 08:35:26;;;;;;;2.83;1.00;;;16.60;82.00;;;;;;4873200;29;20032;-67
2021/08/25 08:38:32;;;;;;;2.80;0.95;;;16.70;81.90;;;;;;4871297;29;20074;-65
2021/08/25 08:41:38;;;;;;;3.90;1.35;;;16.70;81.70;;;;;;4871387;29;20029;-70
2021/08/25 08:44:44;;;;;;;4.82;1.50;;;16.70;81.60;;;;;;4872527;29;20872;-63
2021/08/25 08:47:50;;;;;;;3.63;1.52;;;16.70;81.60;;;;;;4856272;29;20029;-63
2021/08/25 08:50:56;;;;;;;14.63;3.08;;;16.70;81.60;;;;;;4872109;29;20025;-66
2021/08/25 08:54:02;;;;;;;8.57;2.88;;;16.70;81.70;;;;;;4873780;29;20177;-66
2021/08/25 08:57:08;;;;;;;4.25;1.90;;;16.70;82.00;;;;;;4869447;29;20121;-68
2021/08/25 09:00:15;;;;;;;8.40;2.33;;;16.80;82.20;;;;;;4872363;29;20381;-65
2021/08/25 09:03:21;;;;;;;9.18;1.23;;;16.90;82.00;;;;;;4866768;29;20037;-64
2021/08/25 09:06:27;;;;;;;10.20;2.30;;;16.90;81.80;;;;;;4872139;29;20021;-64
2021/08/25 09:09:33;;;;;;;4.47;1.80;;;17.00;81.70;;;;;;4872155;29;20033;-63
2021/08/25 09:12:39;;;;;;;9.15;2.20;;;17.00;81.50;;;;;;4870663;29;20033;-64
2021/08/25 09:15:45;;;;;;;6.75;1.58;;;17.10;81.50;;;;;;4873014;29;20061;-63
2021/08/25 09:18:51;;;;;;;6.93;1.55;;;17.20;81.00;;;;;;4869352;29;20393;-63
2021/08/25 09:21:40;;;;;;;8.57;2.70;;;17.30;80.40;;;;;;4871481;29;20040;-64
2021/08/25 09:24:58;;;;;;;5.50;1.75;;;17.30;79.90;;;;;;4865136;29;20042;-66
2021/08/25 09:28:13;;;;;;;6.22;2.47;;;17.30;79.70;;;;;;4873647;29;20040;-63
2021/08/25 09:31:28;;;;;;;6.57;1.45;;;17.40;79.90;;;;;;4871396;29;20108;-67
2021/08/25 09:34:43;;;;;;;3.53;1.77;;;17.40;80.20;;;;;;4873252;29;20037;-66
2021/08/25 09:37:49;;;;;;;6.57;1.88;;;17.40;80.40;;;;;;4873685;29;20112;-67
2021/08/25 09:40:55;;;;;;;4.35;2.05;;;17.40;80.40;;;;;;4875240;29;20040;-65
2021/08/25 09:44:08;;;;;;;6.00;2.15;;;17.50;80.40;;;;;;4875241;29;20033;-65
2021/08/25 09:47:14;;;;;;;5.60;1.55;;;17.60;80.00;;;;;;4876931;29;20032;-66
2021/08/25 09:50:26;;;;;;;8.60;2.25;;;17.60;79.40;;;;;;4878038;29;20560;-66
2021/08/25 09:53:32;;;;;;;5.20;1.30;;;17.70;79.10;;;;;;4873847;29;20040;-64
2021/08/25 09:56:38;;;;;;;8.18;2.75;;;17.80;78.50;;;;;;4874749;29;20044;-62
2021/08/25 09:59:44;;;;;;;6.50;1.27;;;17.80;78.00;;;;;;4877041;29;20124;-65
2021/08/25 10:02:50;;;;;;;5.38;1.70;;;17.90;77.70;;;;;;4875423;29;20040;-63
2021/08/25 10:05:57;;;;;;;7.43;2.65;;;18.00;77.20;;;;;;4874969;29;20029;-61
2021/08/25 10:09:03;;;;;;;4.57;2.13;;;18.00;76.60;;;;;;4872402;29;20397;-62
2021/08/25 10:12:09;;;;;;;3.80;1.67;;;18.10;76.70;;;;;;4876771;29;20099;-62
2021/08/25 10:15:15;;;;;;;7.28;1.67;;;18.20;76.70;;;;;;4870696;29;20025;-63
2021/08/25 10:18:21;;;;;;;2.92;2.08;;;18.20;76.00;;;;;;4875862;29;20319;-63
2021/08/25 10:21:36;;;;;;;5.53;1.40;;;18.30;75.40;;;;;;4870404;29;20086;-66
2021/08/25 10:24:45;;;;;;;3.83;1.40;;;18.30;75.20;;;;;;4869479;29;20101;-64
2021/08/25 10:27:51;;;;;;;6.50;2.17;;;18.40;75.00;;;;;;4876502;29;20177;-62
2021/08/25 10:30:47;;;;;;;8.27;1.67;;;18.40;74.60;;;;;;4871736;29;20503;-62
2021/08/25 10:33:53;;;;;;;10.13;1.87;;;18.50;74.50;;;;;;4874967;29;20085;-62
2021/08/25 10:36:59;;;;;;;10.57;2.10;;;18.50;74.10;;;;;;4874158;29;20033;-63
2021/08/25 10:40:17;;;;;;;3.75;1.38;;;18.60;74.50;;;;;;4875708;29;20044;-63
2021/08/25 10:43:23;;;;;;;3.67;1.27;;;18.60;74.70;;;;;;4875201;29;20039;-64
2021/08/25 10:46:29;;;;;;;3.50;1.80;;;18.70;74.60;;;;;;4877440;29;20497;-62
2021/08/25 10:49:46;;;;;;;3.03;1.35;;;18.70;74.40;;;;;;4874857;29;20029;-62
2021/08/25 10:52:17;;;;;;;3.97;1.40;;;18.80;74.50;;;;;;4873814;29;20052;-62
2021/08/25 10:55:24;;;;;;;3.08;1.42;;;18.80;74.20;;;;;;4874353;29;20039;-63
2021/08/25 10:58:30;;;;;;;3.38;1.35;;;18.80;73.70;;;;;;4859444;29;20441;-63
2021/08/25 11:01:29;;;;;;;9.05;1.73;;;18.90;73.60;;;;;;4868246;29;20028;-62
2021/08/25 11:04:35;;;;;;;3.50;1.35;;;18.90;73.50;;;;;;4859790;29;20388;-63
2021/08/25 11:07:42;;;;;;;3.28;1.65;;;19.00;73.40;;;;;;4875306;29;20040;-63
2021/08/25 11:10:48;;;;;;;5.15;1.63;;;19.00;73.20;;;;;;4874521;29;20061;-62
2021/08/25 11:13:57;;;;;;;3.20;1.38;;;19.10;72.80;;;;;;4871694;29;20075;-63
2021/08/25 11:17:07;;;;;;;3.80;1.30;;;19.10;72.60;;;;;;4875783;29;20013;-62
2021/08/25 11:19:53;;;;;;;6.00;1.80;;;19.20;72.50;;;;;;4873404;29;20377;-62
2021/08/25 11:23:02;;;;;;;5.93;1.45;;;19.20;72.50;;;;;;4872345;29;20036;-62
2021/08/25 11:26:14;;;;;;;11.48;3.50;;;19.30;72.40;;;;;;4873504;29;20029;-62
2021/08/25 11:29:20;;;;;;;3.20;1.80;;;19.40;72.20;;;;;;4867401;29;20032;-63
2021/08/25 11:32:26;;;;;;;4.70;1.45;;;19.40;71.80;;;;;;4871947;29;20581;-62
2021/08/25 11:35:32;;;;;;;4.40;1.80;;;19.40;71.20;;;;;;4873733;29;20048;-63
2021/08/25 11:38:40;;;;;;;2.20;1.52;;;19.50;69.80;;;;;;4875997;29;20033;-62
2021/08/25 11:41:46;;;;;;;3.85;1.48;;;19.60;69.30;;;;;;4870261;29;20025;-62
2021/08/25 11:44:54;;;;;;;2.30;1.17;;;19.60;69.20;;;;;;4874921;29;20481;-62
2021/08/25 11:48:01;;;;;;;4.78;2.58;;;19.70;68.90;;;;;;4873717;29;20025;-63
2021/08/25 11:50:47;;;;;;;;;;;19.70;68.50;;;;;;4873303;29;20046;-62
2021/08/25 11:53:56;;;;;;;1.25;1.00;;;19.80;68.50;;;;;;4872150;29;19970;-62
2021/08/25 11:57:05;;;;;;;3.53;1.58;;;19.90;67.90;;;;;;4864887;29;20454;-62
2021/08/25 12:00:20;;;;;;;2.25;1.02;;;20.00;67.30;;;;;;4874718;29;20076;-63
2021/08/25 12:03:41;;;;;;;3.90;1.27;;;20.00;67.00;;;;;;4874330;29;20437;-62
2021/08/25 12:06:59;;;;;;;5.03;1.73;;;20.10;66.70;;;;;;4872920;29;20476;-62
2021/08/25 12:10:11;;;;;;;3.45;1.13;;;20.20;66.20;;;;;;4872339;29;20503;-62
2021/08/25 12:13:26;;;;;;;5.70;1.30;;;20.20;66.30;;;;;;4871816;29;20044;-63
2021/08/25 12:16:41;;;;;;;3.83;1.52;;;20.30;65.70;;;;;;4872234;29;20088;-62
2021/08/25 12:19:47;;;;;;;6.80;1.75;;;20.40;65.60;;;;;;4870423;29;20032;-62
2021/08/25 12:23:03;;;;;;;3.38;1.27;;;20.40;65.50;;;;;;4874633;29;20013;-62
2021/08/25 12:26:15;;;;;;;4.55;1.42;;;20.50;64.90;;;;;;4871361;29;20041;-62
2021/08/25 12:29:21;;;;;;;4.63;1.20;;;20.50;64.80;;;;;;4869495;29;20169;-62
2021/08/25 12:32:27;;;;;;;4.03;1.63;;;20.60;64.40;;;;;;4875617;29;20505;-62
2021/08/25 12:35:33;;;;;;;5.78;2.55;;;20.70;64.30;;;;;;4872539;29;20041;-62
2021/08/25 12:38:39;;;;;;;3.10;1.40;;;20.80;64.10;;;;;;4871436;29;20675;-62
2021/08/25 12:41:25;;;;;;;;;;;20.90;64.10;;;;;;4872242;29;20059;-62
2021/08/25 12:44:31;;;;;;;3.47;0.85;;;20.90;63.80;;;;;;4874033;29;19983;-62
2021/08/25 12:47:41;;;;;;;3.65;1.20;;;21.00;63.60;;;;;;4874605;29;20516;-62
2021/08/25 12:50:47;;;;;;;5.65;1.40;;;21.00;63.30;;;;;;4874386;29;20025;-62
2021/08/25 12:53:53;;;;;;;5.63;1.88;;;21.00;62.90;;;;;;4875815;29;20503;-62
2021/08/25 12:56:59;;;;;;;3.50;1.58;;;21.00;62.60;;;;;;4873612;29;20045;-65
2021/08/25 13:00:05;;;;;;;3.60;1.42;;;21.00;62.20;;;;;;4874255;29;20492;-63
2021/08/25 13:03:11;;;;;;;3.00;1.60;;;21.10;62.20;;;;;;4873456;29;20041;-63
2021/08/25 13:06:17;;;;;;;4.03;1.48;;;21.00;63.00;;;;;;4868721;29;20041;-63
2021/08/25 13:09:23;;;;;;;9.57;1.52;;;20.90;63.10;;;;;;4872904;29;20095;-63
2021/08/25 13:12:29;;;;;;;2.92;1.20;;;20.90;63.60;;;;;;4874464;29;20037;-65
2021/08/25 13:15:35;;;;;;;3.13;1.05;;;20.80;63.70;;;;;;4866660;29;20032;-70
2021/08/25 13:18:41;;;;;;;1.90;1.20;;;20.70;63.90;;;;;;4865831;29;20029;-65
2021/08/25 13:21:47;;;;;;;6.82;1.38;;;20.60;64.00;;;;;;4872682;29;20108;-63
2021/08/25 13:24:53;;;;;;;2.83;1.48;;;20.60;64.40;;;;;;4870355;29;20032;-63
2021/08/25 13:27:59;;;;;;;4.25;1.38;;;20.50;64.20;;;;;;4872165;29;20058;-63
2021/08/25 13:31:06;;;;;;;1.77;1.13;;;20.50;64.60;;;;;;4873608;29;20025;-64
2021/08/25 13:34:12;;;;;;;2.17;1.33;;;20.40;64.50;;;;;;4867351;29;20037;-63
2021/08/25 13:37:18;;;;;;;1.33;0.85;;;20.40;64.50;;;;;;4872194;29;20021;-67
2021/08/25 13:40:24;;;;;;;5.78;2.05;;;20.30;64.20;;;;;;4872466;29;20089;-65
2021/08/25 13:43:30;;;;;;;4.93;1.23;;;20.30;64.60;;;;;;4873890;29;20044;-62
2021/08/25 13:45:56;;;;;;;7.05;1.27;;;20.30;65.30;;;;;;4869730;29;20037;-62
2021/08/25 13:48:23;;;;;;;4.78;1.75;;;20.30;65.70;;;;;;4874883;29;20033;-65
2021/08/25 13:50:49;;;;;;;3.53;1.98;;;20.30;66.10;;;;;;4871329;29;20021;-63
2021/08/25 13:53:16;;;;;;;7.35;2.45;;;20.30;66.70;;;;;;4870373;29;20568;-69
2021/08/25 13:55:42;;;;;;;3.95;1.73;;;20.30;66.80;;;;;;4870331;29;20070;-63
2021/08/25 13:58:09;;;;;;;5.18;1.90;;;20.20;67.10;;;;;;4870193;29;20389;-63
2021/08/25 14:00:36;;;;;;;7.50;2.15;;;20.20;67.30;;;;;;4870228;29;20024;-64
2021/08/25 14:03:02;;;;;;;7.68;2.40;;;20.20;67.40;;;;;;4873952;29;20025;-62
2021/08/25 14:05:29;;;;;;;6.78;1.92;;;20.20;67.30;;;;;;4872822;29;20029;-70
2021/08/25 14:07:55;;;;;;;4.20;1.73;;;20.20;67.40;;;;;;4870963;29;20025;-64
2021/08/25 14:10:22;;;;;;;3.55;1.30;;;20.20;67.50;;;;;;4870478;29;20029;-63
2021/08/25 14:12:48;;;;;;;3.20;1.52;;;20.10;67.40;;;;;;4872131;29;20105;-61
2021/08/25 14:15:15;;;;;;;5.03;1.50;;;20.10;67.30;;;;;;4871042;29;20025;-65
2021/08/25 14:17:41;;;;;;;5.18;1.17;;;20.10;67.70;;;;;;4873326;29;20112;-61
2021/08/25 14:20:08;;;;;;;3.75;1.35;;;20.10;67.80;;;;;;4855977;29;20498;-68
2021/08/25 14:22:35;;;;;;;3.85;1.52;;;20.10;68.10;;;;;;4868416;29;20380;-65
2021/08/25 14:25:01;;;;;;;3.10;1.52;;;20.10;68.30;;;;;;4874280;29;20052;-62
2021/08/25 14:27:28;;;;;;;4.25;1.40;;;20.10;68.90;;;;;;4875518;29;20120;-63
2021/08/25 14:29:54;;;;;;;4.95;1.42;;;20.00;68.90;;;;;;4875491;29;20072;-62
2021/08/25 14:32:21;;;;;;;4.70;1.38;;;20.00;69.20;;;;;;4870239;29;20028;-69
2021/08/25 14:34:47;;;;;;;6.43;1.50;;;19.90;69.20;;;;;;4879501;29;20035;-66
2021/08/25 14:37:14;;;;;;;3.88;1.38;;;19.90;69.40;;;;;;4871328;29;20458;-63
2021/08/25 14:39:40;;;;;;;5.80;1.55;;;19.90;69.60;;;;;;4876341;29;20583;-62